sensor_id;sensor_type;location;lat;lon;timestamp;temperature;humidity
13992;DHT22;7070;53.586;9.692;2023-02-11T00:00:13;7.10;91.20
13992;DHT22;7070;53.586;9.692;2023-02-11T00:02:41;7.10;91.20
13992;DHT22;7070;53.586;9.692;2023-02-11T00:05:08;7.10;91.20
13992;DHT22;7070;53.586;9.692;2023-02-11T00:07:35;7.20;91.30
13992;DHT22;7070;53.586;9.692;2023-02-11T00:10:03;7.20;91.30
13992;DHT22;7070;53.586;9.692;2023-02-11T00:12:33;7.20;91.30
13992;DHT22;7070;53.586;9.692;2023-02-11T00:15:00;7.20;91.20
13992;DHT22;7070;53.586;9.692;2023-02-11T00:17:27;7.20;91.20
13992;DHT22;7070;53.586;9.692;2023-02-11T00:19:54;7.30;91.30
13992;DHT22;7070;53.586;9.692;2023-02-11T00:22:21;7.20;91.20
13992;DHT22;7070;53.586;9.692;2023-02-11T00:24:48;7.30;91.60
13992;DHT22;7070;53.586;9.692;2023-02-11T00:27:15;7.30;91.20
13992;DHT22;7070;53.586;9.692;2023-02-11T00:29:43;7.30;91.20
13992;DHT22;7070;53.586;9.692;2023-02-11T00:32:10;7.30;91.20
13992;DHT22;7070;53.586;9.692;2023-02-11T00:34:37;7.30;91.20
13992;DHT22;7070;53.586;9.692;2023-02-11T00:37:04;7.30;91.20
13992;DHT22;7070;53.586;9.692;2023-02-11T00:39:31;7.30;91.20
13992;DHT22;7070;53.586;9.692;2023-02-11T00:41:58;7.30;91.20
13992;DHT22;7070;53.586;9.692;2023-02-11T00:44:25;7.30;91.20
13992;DHT22;7070;53.586;9.692;2023-02-11T00:46:53;7.30;91.10
13992;DHT22;7070;53.586;9.692;2023-02-11T00:49:20;7.30;91.20
13992;DHT22;7070;53.586;9.692;2023-02-11T00:51:47;7.30;91.20
13992;DHT22;7070;53.586;9.692;2023-02-11T00:54:13;7.30;91.10
13992;DHT22;7070;53.586;9.692;2023-02-11T00:56:40;7.30;91.10
13992;DHT22;7070;53.586;9.692;2023-02-11T00:59:07;7.30;91.10
13992;DHT22;7070;53.586;9.692;2023-02-11T01:01:34;7.30;91.10
13992;DHT22;7070;53.586;9.692;2023-02-11T01:04:03;7.30;91.10
13992;DHT22;7070;53.586;9.692;2023-02-11T01:06:30;7.30;91.10
13992;DHT22;7070;53.586;9.692;2023-02-11T01:08:56;7.30;91.10
13992;DHT22;7070;53.586;9.692;2023-02-11T01:11:23;7.30;91.10
13992;DHT22;7070;53.586;9.692;2023-02-11T01:13:50;7.30;91.10
13992;DHT22;7070;53.586;9.692;2023-02-11T01:16:18;7.30;91.10
13992;DHT22;7070;53.586;9.692;2023-02-11T01:18:45;7.30;91.20
13992;DHT22;7070;53.586;9.692;2023-02-11T01:21:14;7.30;91.10
13992;DHT22;7070;53.586;9.692;2023-02-11T01:23:41;7.40;91.20
13992;DHT22;7070;53.586;9.692;2023-02-11T01:26:07;7.30;91.10
13992;DHT22;7070;53.586;9.692;2023-02-11T01:28:34;7.30;91.10
13992;DHT22;7070;53.586;9.692;2023-02-11T01:31:02;7.30;91.20
13992;DHT22;7070;53.586;9.692;2023-02-11T01:33:29;7.40;91.20
13992;DHT22;7070;53.586;9.692;2023-02-11T01:36:00;7.40;91.10
13992;DHT22;7070;53.586;9.692;2023-02-11T01:38:29;7.30;91.20
13992;DHT22;7070;53.586;9.692;2023-02-11T01:40:58;7.40;91.20
13992;DHT22;7070;53.586;9.692;2023-02-11T01:43:27;7.40;91.10
13992;DHT22;7070;53.586;9.692;2023-02-11T01:46:00;7.40;91.20
13992;DHT22;7070;53.586;9.692;2023-02-11T01:48:30;7.40;91.20
13992;DHT22;7070;53.586;9.692;2023-02-11T01:51:01;7.30;91.10
13992;DHT22;7070;53.586;9.692;2023-02-11T01:53:31;7.40;91.20
13992;DHT22;7070;53.586;9.692;2023-02-11T01:56:32;7.40;91.20
13992;DHT22;7070;53.586;9.692;2023-02-11T01:59:21;7.30;91.20
13992;DHT22;7070;53.586;9.692;2023-02-11T02:01:54;7.40;91.20
13992;DHT22;7070;53.586;9.692;2023-02-11T02:04:23;7.40;91.20
13992;DHT22;7070;53.586;9.692;2023-02-11T02:06:59;7.40;91.20
13992;DHT22;7070;53.586;9.692;2023-02-11T02:09:33;7.40;91.30
13992;DHT22;7070;53.586;9.692;2023-02-11T02:12:01;7.40;91.30
13992;DHT22;7070;53.586;9.692;2023-02-11T02:14:27;7.40;91.30
13992;DHT22;7070;53.586;9.692;2023-02-11T02:16:54;7.40;91.30
13992;DHT22;7070;53.586;9.692;2023-02-11T02:20:03;7.40;91.30
13992;DHT22;7070;53.586;9.692;2023-02-11T02:22:56;7.40;91.10
13992;DHT22;7070;53.586;9.692;2023-02-11T02:26:04;7.40;91.30
13992;DHT22;7070;53.586;9.692;2023-02-11T02:29:18;7.50;91.20
13992;DHT22;7070;53.586;9.692;2023-02-11T02:34:49;7.40;91.20
13992;DHT22;7070;53.586;9.692;2023-02-11T02:37:22;7.40;91.30
13992;DHT22;7070;53.586;9.692;2023-02-11T02:39:50;7.50;91.30
13992;DHT22;7070;53.586;9.692;2023-02-11T02:42:17;7.50;91.30
13992;DHT22;7070;53.586;9.692;2023-02-11T02:44:47;7.50;91.30
13992;DHT22;7070;53.586;9.692;2023-02-11T02:47:14;7.50;91.30
13992;DHT22;7070;53.586;9.692;2023-02-11T02:49:41;7.50;91.30
13992;DHT22;7070;53.586;9.692;2023-02-11T02:52:17;7.50;91.30
13992;DHT22;7070;53.586;9.692;2023-02-11T02:55:08;7.50;91.20
13992;DHT22;7070;53.586;9.692;2023-02-11T02:57:46;7.50;91.10
13992;DHT22;7070;53.586;9.692;2023-02-11T03:00:25;7.50;91.20
13992;DHT22;7070;53.586;9.692;2023-02-11T03:03:12;7.50;91.20
13992;DHT22;7070;53.586;9.692;2023-02-11T03:05:48;7.50;91.20
13992;DHT22;7070;53.586;9.692;2023-02-11T03:08:23;7.50;91.20
13992;DHT22;7070;53.586;9.692;2023-02-11T03:10:52;7.40;91.20
13992;DHT22;7070;53.586;9.692;2023-02-11T03:13:23;7.50;91.20
13992;DHT22;7070;53.586;9.692;2023-02-11T03:15:55;7.40;91.20
13992;DHT22;7070;53.586;9.692;2023-02-11T03:18:25;7.40;91.20
13992;DHT22;7070;53.586;9.692;2023-02-11T03:21:09;7.40;91.20
13992;DHT22;7070;53.586;9.692;2023-02-11T03:23:40;7.40;91.30
13992;DHT22;7070;53.586;9.692;2023-02-11T03:26:11;7.50;91.30
13992;DHT22;7070;53.586;9.692;2023-02-11T03:28:44;7.50;91.30
13992;DHT22;7070;53.586;9.692;2023-02-11T03:31:19;7.50;91.30
13992;DHT22;7070;53.586;9.692;2023-02-11T03:33:52;7.50;91.30
13992;DHT22;7070;53.586;9.692;2023-02-11T03:36:24;7.50;91.30
13992;DHT22;7070;53.586;9.692;2023-02-11T03:38:56;7.60;91.40
13992;DHT22;7070;53.586;9.692;2023-02-11T03:41:23;7.60;91.40
13992;DHT22;7070;53.586;9.692;2023-02-11T03:43:52;7.60;91.40
13992;DHT22;7070;53.586;9.692;2023-02-11T03:46:23;7.60;91.50
13992;DHT22;7070;53.586;9.692;2023-02-11T03:48:52;7.60;91.40
13992;DHT22;7070;53.586;9.692;2023-02-11T03:51:21;7.60;91.50
13992;DHT22;7070;53.586;9.692;2023-02-11T03:53:53;7.70;91.50
13992;DHT22;7070;53.586;9.692;2023-02-11T03:56:24;7.70;91.50
13992;DHT22;7070;53.586;9.692;2023-02-11T03:58:51;7.70;91.50
13992;DHT22;7070;53.586;9.692;2023-02-11T04:01:18;7.70;91.40
13992;DHT22;7070;53.586;9.692;2023-02-11T04:03:45;7.70;91.50
13992;DHT22;7070;53.586;9.692;2023-02-11T04:06:12;7.80;91.50
13992;DHT22;7070;53.586;9.692;2023-02-11T04:08:39;7.90;91.50
13992;DHT22;7070;53.586;9.692;2023-02-11T04:11:07;7.90;91.50
13992;DHT22;7070;53.586;9.692;2023-02-11T04:13:34;7.90;91.50
13992;DHT22;7070;53.586;9.692;2023-02-11T04:16:01;7.90;91.50
13992;DHT22;7070;53.586;9.692;2023-02-11T04:18:28;7.90;91.50
13992;DHT22;7070;53.586;9.692;2023-02-11T04:20:55;7.90;91.50
13992;DHT22;7070;53.586;9.692;2023-02-11T04:23:21;8.10;91.60
13992;DHT22;7070;53.586;9.692;2023-02-11T04:25:48;8.00;91.50
13992;DHT22;7070;53.586;9.692;2023-02-11T04:28:17;8.10;91.60
13992;DHT22;7070;53.586;9.692;2023-02-11T04:30:44;8.00;91.50
13992;DHT22;7070;53.586;9.692;2023-02-11T04:33:10;8.10;91.50
13992;DHT22;7070;53.586;9.692;2023-02-11T04:35:37;8.10;91.50
13992;DHT22;7070;53.586;9.692;2023-02-11T04:38:04;8.10;91.50
13992;DHT22;7070;53.586;9.692;2023-02-11T04:40:31;8.20;91.50
13992;DHT22;7070;53.586;9.692;2023-02-11T04:42:58;8.10;91.50
13992;DHT22;7070;53.586;9.692;2023-02-11T04:45:26;8.10;91.50
13992;DHT22;7070;53.586;9.692;2023-02-11T04:47:53;8.20;91.50
13992;DHT22;7070;53.586;9.692;2023-02-11T04:50:20;8.20;91.50
13992;DHT22;7070;53.586;9.692;2023-02-11T04:52:46;8.20;91.50
13992;DHT22;7070;53.586;9.692;2023-02-11T04:55:13;8.20;91.40
13992;DHT22;7070;53.586;9.692;2023-02-11T04:57:40;8.20;91.40
13992;DHT22;7070;53.586;9.692;2023-02-11T05:00:08;8.20;91.40
13992;DHT22;7070;53.586;9.692;2023-02-11T05:02:37;8.20;91.40
13992;DHT22;7070;53.586;9.692;2023-02-11T05:05:04;8.30;91.40
13992;DHT22;7070;53.586;9.692;2023-02-11T05:07:31;8.30;91.40
13992;DHT22;7070;53.586;9.692;2023-02-11T05:09:58;8.20;91.40
13992;DHT22;7070;53.586;9.692;2023-02-11T05:12:25;8.30;91.40
13992;DHT22;7070;53.586;9.692;2023-02-11T05:14:52;8.20;91.30
13992;DHT22;7070;53.586;9.692;2023-02-11T05:17:19;8.30;91.40
13992;DHT22;7070;53.586;9.692;2023-02-11T05:19:47;8.20;91.30
13992;DHT22;7070;53.586;9.692;2023-02-11T05:22:14;8.20;91.30
13992;DHT22;7070;53.586;9.692;2023-02-11T05:24:41;8.20;91.30
13992;DHT22;7070;53.586;9.692;2023-02-11T05:27:08;8.20;91.30
13992;DHT22;7070;53.586;9.692;2023-02-11T05:29:35;8.20;91.30
13992;DHT22;7070;53.586;9.692;2023-02-11T05:32:02;8.20;91.20
13992;DHT22;7070;53.586;9.692;2023-02-11T05:34:29;8.10;91.20
13992;DHT22;7070;53.586;9.692;2023-02-11T05:36:57;8.20;91.30
13992;DHT22;7070;53.586;9.692;2023-02-11T05:39:24;8.10;91.60
13992;DHT22;7070;53.586;9.692;2023-02-11T05:41:51;8.20;91.30
13992;DHT22;7070;53.586;9.692;2023-02-11T05:44:18;8.20;91.30
13992;DHT22;7070;53.586;9.692;2023-02-11T05:46:45;8.10;91.30
13992;DHT22;7070;53.586;9.692;2023-02-11T05:49:11;8.10;91.20
13992;DHT22;7070;53.586;9.692;2023-02-11T05:51:38;8.10;91.30
13992;DHT22;7070;53.586;9.692;2023-02-11T05:54:07;8.20;91.30
13992;DHT22;7070;53.586;9.692;2023-02-11T05:56:33;8.10;91.30
13992;DHT22;7070;53.586;9.692;2023-02-11T05:59:00;8.10;91.30
13992;DHT22;7070;53.586;9.692;2023-02-11T06:01:28;8.10;91.30
13992;DHT22;7070;53.586;9.692;2023-02-11T06:03:55;8.10;91.60
13992;DHT22;7070;53.586;9.692;2023-02-11T06:06:23;8.10;91.40
13992;DHT22;7070;53.586;9.692;2023-02-11T06:08:50;8.10;91.40
13992;DHT22;7070;53.586;9.692;2023-02-11T06:11:18;8.10;91.40
13992;DHT22;7070;53.586;9.692;2023-02-11T06:13:45;8.20;91.50
13992;DHT22;7070;53.586;9.692;2023-02-11T06:16:12;8.10;91.40
13992;DHT22;7070;53.586;9.692;2023-02-11T06:18:39;8.20;91.50
13992;DHT22;7070;53.586;9.692;2023-02-11T06:21:07;8.10;91.70
13992;DHT22;7070;53.586;9.692;2023-02-11T06:23:34;8.10;91.40
13992;DHT22;7070;53.586;9.692;2023-02-11T06:26:01;8.20;91.50
13992;DHT22;7070;53.586;9.692;2023-02-11T06:28:30;8.10;91.50
13992;DHT22;7070;53.586;9.692;2023-02-11T06:30:58;8.20;91.50
13992;DHT22;7070;53.586;9.692;2023-02-11T06:33:25;8.20;91.50
13992;DHT22;7070;53.586;9.692;2023-02-11T06:35:51;8.20;91.50
13992;DHT22;7070;53.586;9.692;2023-02-11T06:38:18;8.20;91.50
13992;DHT22;7070;53.586;9.692;2023-02-11T06:40:48;8.20;91.50
13992;DHT22;7070;53.586;9.692;2023-02-11T06:43:16;8.20;91.80
13992;DHT22;7070;53.586;9.692;2023-02-11T06:45:44;8.30;91.60
13992;DHT22;7070;53.586;9.692;2023-02-11T06:48:11;8.30;91.50
13992;DHT22;7070;53.586;9.692;2023-02-11T06:50:38;8.30;91.50
13992;DHT22;7070;53.586;9.692;2023-02-11T06:53:05;8.20;91.80
13992;DHT22;7070;53.586;9.692;2023-02-11T06:55:33;8.30;91.50
13992;DHT22;7070;53.586;9.692;2023-02-11T06:58:00;8.30;91.50
13992;DHT22;7070;53.586;9.692;2023-02-11T07:00:27;8.30;91.50
13992;DHT22;7070;53.586;9.692;2023-02-11T07:02:56;8.30;91.50
13992;DHT22;7070;53.586;9.692;2023-02-11T07:05:23;8.30;91.50
13992;DHT22;7070;53.586;9.692;2023-02-11T07:07:49;8.30;91.50
13992;DHT22;7070;53.586;9.692;2023-02-11T07:10:16;8.30;91.50
13992;DHT22;7070;53.586;9.692;2023-02-11T07:12:43;8.30;91.50
13992;DHT22;7070;53.586;9.692;2023-02-11T07:15:10;8.30;91.50
13992;DHT22;7070;53.586;9.692;2023-02-11T07:17:37;8.30;91.80
13992;DHT22;7070;53.586;9.692;2023-02-11T07:20:06;8.30;91.50
13992;DHT22;7070;53.586;9.692;2023-02-11T07:22:34;8.30;91.50
13992;DHT22;7070;53.586;9.692;2023-02-11T07:25:01;8.30;91.50
13992;DHT22;7070;53.586;9.692;2023-02-11T07:27:29;8.30;91.50
13992;DHT22;7070;53.586;9.692;2023-02-11T07:29:56;8.30;91.50
13992;DHT22;7070;53.586;9.692;2023-02-11T07:32:22;8.40;91.60
13992;DHT22;7070;53.586;9.692;2023-02-11T07:34:49;8.40;91.60
13992;DHT22;7070;53.586;9.692;2023-02-11T07:37:18;8.40;91.60
13992;DHT22;7070;53.586;9.692;2023-02-11T07:39:45;8.40;91.50
13992;DHT22;7070;53.586;9.692;2023-02-11T07:42:11;8.40;91.50
13992;DHT22;7070;53.586;9.692;2023-02-11T07:44:38;8.40;91.60
13992;DHT22;7070;53.586;9.692;2023-02-11T07:47:05;8.40;91.50
13992;DHT22;7070;53.586;9.692;2023-02-11T07:49:32;8.50;91.60
13992;DHT22;7070;53.586;9.692;2023-02-11T07:51:59;8.60;91.60
13992;DHT22;7070;53.586;9.692;2023-02-11T07:54:27;8.50;91.60
13992;DHT22;7070;53.586;9.692;2023-02-11T07:56:54;8.50;91.60
13992;DHT22;7070;53.586;9.692;2023-02-11T07:59:21;8.50;91.60
13992;DHT22;7070;53.586;9.692;2023-02-11T08:01:49;8.60;91.60
13992;DHT22;7070;53.586;9.692;2023-02-11T08:04:16;8.50;91.60
13992;DHT22;7070;53.586;9.692;2023-02-11T08:06:43;8.60;91.60
13992;DHT22;7070;53.586;9.692;2023-02-11T08:09:13;8.60;91.60
13992;DHT22;7070;53.586;9.692;2023-02-11T08:11:43;8.60;91.60
13992;DHT22;7070;53.586;9.692;2023-02-11T08:14:10;8.60;91.60
13992;DHT22;7070;53.586;9.692;2023-02-11T08:16:37;8.70;91.70
13992;DHT22;7070;53.586;9.692;2023-02-11T08:19:06;8.70;91.60
13992;DHT22;7070;53.586;9.692;2023-02-11T08:21:33;8.70;91.60
13992;DHT22;7070;53.586;9.692;2023-02-11T08:24:00;8.70;91.60
13992;DHT22;7070;53.586;9.692;2023-02-11T08:26:29;8.70;91.60
13992;DHT22;7070;53.586;9.692;2023-02-11T08:28:58;8.80;91.70
13992;DHT22;7070;53.586;9.692;2023-02-11T08:31:28;8.80;91.70
13992;DHT22;7070;53.586;9.692;2023-02-11T08:33:55;8.80;91.70
13992;DHT22;7070;53.586;9.692;2023-02-11T08:36:24;8.70;91.60
13992;DHT22;7070;53.586;9.692;2023-02-11T08:38:53;8.80;91.70
13992;DHT22;7070;53.586;9.692;2023-02-11T08:41:20;8.80;91.70
13992;DHT22;7070;53.586;9.692;2023-02-11T08:43:47;8.80;91.60
13992;DHT22;7070;53.586;9.692;2023-02-11T08:46:16;8.80;91.60
13992;DHT22;7070;53.586;9.692;2023-02-11T08:48:44;8.90;91.60
13992;DHT22;7070;53.586;9.692;2023-02-11T08:51:15;8.80;91.60
13992;DHT22;7070;53.586;9.692;2023-02-11T08:53:42;8.80;91.60
13992;DHT22;7070;53.586;9.692;2023-02-11T08:56:10;8.90;91.60
13992;DHT22;7070;53.586;9.692;2023-02-11T08:58:37;8.80;91.60
13992;DHT22;7070;53.586;9.692;2023-02-11T09:01:08;8.90;91.60
13992;DHT22;7070;53.586;9.692;2023-02-11T09:03:37;8.80;91.60
13992;DHT22;7070;53.586;9.692;2023-02-11T09:06:04;8.90;91.70
13992;DHT22;7070;53.586;9.692;2023-02-11T09:08:33;8.90;91.70
13992;DHT22;7070;53.586;9.692;2023-02-11T09:11:00;8.90;91.70
13992;DHT22;7070;53.586;9.692;2023-02-11T09:13:27;8.90;92.00
13992;DHT22;7070;53.586;9.692;2023-02-11T09:15:54;8.90;91.70
13992;DHT22;7070;53.586;9.692;2023-02-11T09:18:21;9.00;91.70
13992;DHT22;7070;53.586;9.692;2023-02-11T09:20:49;9.00;91.70
13992;DHT22;7070;53.586;9.692;2023-02-11T09:23:16;9.00;91.70
13992;DHT22;7070;53.586;9.692;2023-02-11T09:25:43;9.00;91.70
13992;DHT22;7070;53.586;9.692;2023-02-11T09:28:10;9.00;91.70
13992;DHT22;7070;53.586;9.692;2023-02-11T09:30:37;9.00;91.70
13992;DHT22;7070;53.586;9.692;2023-02-11T09:33:04;9.00;91.80
13992;DHT22;7070;53.586;9.692;2023-02-11T09:35:32;9.10;91.80
13992;DHT22;7070;53.586;9.692;2023-02-11T09:38:00;9.10;91.90
13992;DHT22;7070;53.586;9.692;2023-02-11T09:40:27;9.20;91.90
13992;DHT22;7070;53.586;9.692;2023-02-11T09:43:01;9.20;91.90
13992;DHT22;7070;53.586;9.692;2023-02-11T09:45:30;9.30;92.00
13992;DHT22;7070;53.586;9.692;2023-02-11T09:48:00;9.40;92.00
13992;DHT22;7070;53.586;9.692;2023-02-11T09:50:30;9.50;92.00
13992;DHT22;7070;53.586;9.692;2023-02-11T09:53:01;9.60;92.00
13992;DHT22;7070;53.586;9.692;2023-02-11T09:55:31;9.60;92.00
13992;DHT22;7070;53.586;9.692;2023-02-11T09:58:03;9.70;92.00
13992;DHT22;7070;53.586;9.692;2023-02-11T10:00:36;9.70;92.00
13992;DHT22;7070;53.586;9.692;2023-02-11T10:06:25;9.90;92.10
13992;DHT22;7070;53.586;9.692;2023-02-11T10:09:04;9.90;92.00
13992;DHT22;7070;53.586;9.692;2023-02-11T10:11:40;9.90;91.90
13992;DHT22;7070;53.586;9.692;2023-02-11T10:14:20;10.20;91.60
13992;DHT22;7070;53.586;9.692;2023-02-11T10:16:57;10.00;91.40
13992;DHT22;7070;53.586;9.692;2023-02-11T10:19:38;10.10;91.40
13992;DHT22;7070;53.586;9.692;2023-02-11T10:22:13;10.10;91.40
13992;DHT22;7070;53.586;9.692;2023-02-11T10:24:49;10.10;91.40
13992;DHT22;7070;53.586;9.692;2023-02-11T10:27:20;10.10;91.40
13992;DHT22;7070;53.586;9.692;2023-02-11T10:29:48;10.10;91.30
13992;DHT22;7070;53.586;9.692;2023-02-11T10:32:26;10.10;91.30
13992;DHT22;7070;53.586;9.692;2023-02-11T10:34:59;10.10;91.30
13992;DHT22;7070;53.586;9.692;2023-02-11T10:37:28;10.10;91.20
13992;DHT22;7070;53.586;9.692;2023-02-11T10:39:56;10.10;91.10
13992;DHT22;7070;53.586;9.692;2023-02-11T10:42:24;10.10;91.20
13992;DHT22;7070;53.586;9.692;2023-02-11T10:44:57;10.10;91.20
13992;DHT22;7070;53.586;9.692;2023-02-11T10:47:27;10.00;91.10
13992;DHT22;7070;53.586;9.692;2023-02-11T10:49:57;10.00;91.10
13992;DHT22;7070;53.586;9.692;2023-02-11T10:52:28;10.00;91.10
13992;DHT22;7070;53.586;9.692;2023-02-11T10:55:13;9.90;91.60
13992;DHT22;7070;53.586;9.692;2023-02-11T10:57:42;10.00;91.20
13992;DHT22;7070;53.586;9.692;2023-02-11T11:00:33;9.90;91.70
13992;DHT22;7070;53.586;9.692;2023-02-11T11:03:04;10.00;91.30
13992;DHT22;7070;53.586;9.692;2023-02-11T11:05:35;10.00;91.20
13992;DHT22;7070;53.586;9.692;2023-02-11T11:08:05;10.00;91.50
13992;DHT22;7070;53.586;9.692;2023-02-11T11:10:39;10.00;91.10
13992;DHT22;7070;53.586;9.692;2023-02-11T11:13:29;10.10;91.10
13992;DHT22;7070;53.586;9.692;2023-02-11T11:16:07;10.10;91.10
13992;DHT22;7070;53.586;9.692;2023-02-11T11:18:35;10.00;91.00
13992;DHT22;7070;53.586;9.692;2023-02-11T11:21:03;10.00;91.00
13992;DHT22;7070;53.586;9.692;2023-02-11T11:23:33;10.00;91.00
13992;DHT22;7070;53.586;9.692;2023-02-11T11:26:05;10.00;91.10
13992;DHT22;7070;53.586;9.692;2023-02-11T11:28:35;10.00;91.10
13992;DHT22;7070;53.586;9.692;2023-02-11T11:31:05;10.10;91.20
13992;DHT22;7070;53.586;9.692;2023-02-11T11:33:40;10.00;91.20
13992;DHT22;7070;53.586;9.692;2023-02-11T11:36:10;10.10;91.30
13992;DHT22;7070;53.586;9.692;2023-02-11T11:38:43;10.10;91.20
13992;DHT22;7070;53.586;9.692;2023-02-11T11:41:22;10.10;91.20
13992;DHT22;7070;53.586;9.692;2023-02-11T11:44:00;10.10;91.20
13992;DHT22;7070;53.586;9.692;2023-02-11T11:46:31;10.20;91.20
13992;DHT22;7070;53.586;9.692;2023-02-11T11:49:03;10.20;91.30
13992;DHT22;7070;53.586;9.692;2023-02-11T11:51:34;10.20;91.30
13992;DHT22;7070;53.586;9.692;2023-02-11T11:54:04;10.20;91.30
13992;DHT22;7070;53.586;9.692;2023-02-11T11:56:37;10.30;91.60
13992;DHT22;7070;53.586;9.692;2023-02-11T11:59:10;10.40;91.30
13992;DHT22;7070;53.586;9.692;2023-02-11T12:01:46;10.40;91.30
13992;DHT22;7070;53.586;9.692;2023-02-11T12:04:35;10.40;91.20
13992;DHT22;7070;53.586;9.692;2023-02-11T12:07:15;10.50;91.20
13992;DHT22;7070;53.586;9.692;2023-02-11T12:09:52;10.50;91.50
13992;DHT22;7070;53.586;9.692;2023-02-11T12:12:37;10.50;91.10
13992;DHT22;7070;53.586;9.692;2023-02-11T12:15:14;10.50;91.10
13992;DHT22;7070;53.586;9.692;2023-02-11T12:17:58;10.50;91.10
13992;DHT22;7070;53.586;9.692;2023-02-11T12:20:32;10.50;91.10
13992;DHT22;7070;53.586;9.692;2023-02-11T12:23:31;10.60;91.20
13992;DHT22;7070;53.586;9.692;2023-02-11T12:26:07;10.60;91.20
13992;DHT22;7070;53.586;9.692;2023-02-11T12:28:56;10.60;91.10
13992;DHT22;7070;53.586;9.692;2023-02-11T12:31:43;10.70;91.20
13992;DHT22;7070;53.586;9.692;2023-02-11T12:34:29;10.60;91.20
13992;DHT22;7070;53.586;9.692;2023-02-11T12:37:04;10.60;91.20
13992;DHT22;7070;53.586;9.692;2023-02-11T12:39:41;10.70;91.20
13992;DHT22;7070;53.586;9.692;2023-02-11T12:42:31;10.60;91.10
13992;DHT22;7070;53.586;9.692;2023-02-11T12:45:26;10.60;91.00
13992;DHT22;7070;53.586;9.692;2023-02-11T12:48:06;10.60;91.00
13992;DHT22;7070;53.586;9.692;2023-02-11T12:50:41;10.60;91.00
13992;DHT22;7070;53.586;9.692;2023-02-11T12:53:32;10.50;91.00
13992;DHT22;7070;53.586;9.692;2023-02-11T12:56:05;10.40;90.90
13992;DHT22;7070;53.586;9.692;2023-02-11T12:58:35;10.50;91.00
13992;DHT22;7070;53.586;9.692;2023-02-11T13:01:08;10.40;91.10
13992;DHT22;7070;53.586;9.692;2023-02-11T13:03:39;10.50;91.20
13992;DHT22;7070;53.586;9.692;2023-02-11T13:06:10;10.50;91.20
13992;DHT22;7070;53.586;9.692;2023-02-11T13:08:42;10.50;91.20
13992;DHT22;7070;53.586;9.692;2023-02-11T13:11:12;10.60;91.20
13992;DHT22;7070;53.586;9.692;2023-02-11T13:13:46;10.60;91.20
13992;DHT22;7070;53.586;9.692;2023-02-11T13:16:26;10.60;91.20
13992;DHT22;7070;53.586;9.692;2023-02-11T13:19:00;10.70;91.20
13992;DHT22;7070;53.586;9.692;2023-02-11T13:21:35;10.70;91.50
13992;DHT22;7070;53.586;9.692;2023-02-11T13:24:12;10.70;91.20
13992;DHT22;7070;53.586;9.692;2023-02-11T13:26:48;10.80;91.10
13992;DHT22;7070;53.586;9.692;2023-02-11T13:29:29;10.80;91.20
13992;DHT22;7070;53.586;9.692;2023-02-11T13:32:07;10.90;91.20
13992;DHT22;7070;53.586;9.692;2023-02-11T13:34:57;10.90;91.20
13992;DHT22;7070;53.586;9.692;2023-02-11T13:37:26;10.90;91.10
13992;DHT22;7070;53.586;9.692;2023-02-11T13:39:56;10.90;91.10
13992;DHT22;7070;53.586;9.692;2023-02-11T13:42:24;10.90;91.10
13992;DHT22;7070;53.586;9.692;2023-02-11T13:44:51;11.00;91.10
13992;DHT22;7070;53.586;9.692;2023-02-11T13:47:26;11.00;91.10
13992;DHT22;7070;53.586;9.692;2023-02-11T13:49:55;11.00;91.10
13992;DHT22;7070;53.586;9.692;2023-02-11T13:52:24;11.00;91.10
13992;DHT22;7070;53.586;9.692;2023-02-11T13:54:54;11.00;91.00
13992;DHT22;7070;53.586;9.692;2023-02-11T13:57:37;11.10;91.40
13992;DHT22;7070;53.586;9.692;2023-02-11T14:03:28;11.00;90.90
13992;DHT22;7070;53.586;9.692;2023-02-11T14:06:25;11.00;90.80
13992;DHT22;7070;53.586;9.692;2023-02-11T14:09:37;11.00;90.90
13992;DHT22;7070;53.586;9.692;2023-02-11T14:12:23;11.00;90.90
13992;DHT22;7070;53.586;9.692;2023-02-11T14:17:39;11.00;90.90
13992;DHT22;7070;53.586;9.692;2023-02-11T14:20:35;10.80;90.70
13992;DHT22;7070;53.586;9.692;2023-02-11T14:23:03;10.80;90.70
13992;DHT22;7070;53.586;9.692;2023-02-11T14:25:31;10.80;90.80
13992;DHT22;7070;53.586;9.692;2023-02-11T14:28:05;10.80;90.80
13992;DHT22;7070;53.586;9.692;2023-02-11T14:30:44;10.90;90.90
13992;DHT22;7070;53.586;9.692;2023-02-11T14:33:42;10.70;90.80
13992;DHT22;7070;53.586;9.692;2023-02-11T14:36:23;10.80;90.80
13992;DHT22;7070;53.586;9.692;2023-02-11T14:39:01;10.80;90.80
13992;DHT22;7070;53.586;9.692;2023-02-11T14:41:37;10.80;90.80
13992;DHT22;7070;53.586;9.692;2023-02-11T14:44:12;10.70;90.70
13992;DHT22;7070;53.586;9.692;2023-02-11T14:46:43;10.70;90.70
13992;DHT22;7070;53.586;9.692;2023-02-11T14:49:18;10.70;90.70
13992;DHT22;7070;53.586;9.692;2023-02-11T14:51:48;10.50;90.60
13992;DHT22;7070;53.586;9.692;2023-02-11T14:54:16;10.60;90.70
13992;DHT22;7070;53.586;9.692;2023-02-11T14:56:45;10.60;91.00
13992;DHT22;7070;53.586;9.692;2023-02-11T14:59:16;10.50;90.70
13992;DHT22;7070;53.586;9.692;2023-02-11T15:01:48;10.40;90.60
13992;DHT22;7070;53.586;9.692;2023-02-11T15:04:23;10.40;90.70
13992;DHT22;7070;53.586;9.692;2023-02-11T15:06:52;10.40;90.70
13992;DHT22;7070;53.586;9.692;2023-02-11T15:09:20;10.40;90.70
13992;DHT22;7070;53.586;9.692;2023-02-11T15:11:51;10.30;90.70
13992;DHT22;7070;53.586;9.692;2023-02-11T15:14:22;10.30;90.70
13992;DHT22;7070;53.586;9.692;2023-02-11T15:16:51;10.30;90.60
13992;DHT22;7070;53.586;9.692;2023-02-11T15:19:23;10.20;90.60
13992;DHT22;7070;53.586;9.692;2023-02-11T15:21:51;10.30;90.70
13992;DHT22;7070;53.586;9.692;2023-02-11T15:24:24;10.30;90.70
13992;DHT22;7070;53.586;9.692;2023-02-11T15:27:02;10.20;90.70
13992;DHT22;7070;53.586;9.692;2023-02-11T15:29:35;10.40;90.80
13992;DHT22;7070;53.586;9.692;2023-02-11T15:32:11;10.20;90.70
13992;DHT22;7070;53.586;9.692;2023-02-11T15:34:38;10.20;90.70
13992;DHT22;7070;53.586;9.692;2023-02-11T15:37:09;10.10;90.60
13992;DHT22;7070;53.586;9.692;2023-02-11T15:39:39;10.10;90.60
13992;DHT22;7070;53.586;9.692;2023-02-11T15:42:20;10.10;90.60
13992;DHT22;7070;53.586;9.692;2023-02-11T15:44:48;10.10;90.60
13992;DHT22;7070;53.586;9.692;2023-02-11T15:47:18;10.00;90.60
13992;DHT22;7070;53.586;9.692;2023-02-11T15:49:46;10.10;90.60
13992;DHT22;7070;53.586;9.692;2023-02-11T15:52:22;10.00;90.60
13992;DHT22;7070;53.586;9.692;2023-02-11T15:54:50;10.00;90.60
13992;DHT22;7070;53.586;9.692;2023-02-11T15:57:19;9.90;91.00
13992;DHT22;7070;53.586;9.692;2023-02-11T15:59:48;10.00;90.60
13992;DHT22;7070;53.586;9.692;2023-02-11T16:02:18;9.90;91.00
13992;DHT22;7070;53.586;9.692;2023-02-11T16:04:52;9.90;91.00
13992;DHT22;7070;53.586;9.692;2023-02-11T16:07:40;9.80;91.00
13992;DHT22;7070;53.586;9.692;2023-02-11T16:10:21;9.80;91.00
13992;DHT22;7070;53.586;9.692;2023-02-11T16:12:55;9.80;91.00
13992;DHT22;7070;53.586;9.692;2023-02-11T16:15:36;9.80;91.00
13992;DHT22;7070;53.586;9.692;2023-02-11T16:18:14;9.70;91.00
13992;DHT22;7070;53.586;9.692;2023-02-11T16:20:46;9.70;91.10
13992;DHT22;7070;53.586;9.692;2023-02-11T16:23:21;9.60;91.00
13992;DHT22;7070;53.586;9.692;2023-02-11T16:25:50;9.60;91.10
13992;DHT22;7070;53.586;9.692;2023-02-11T16:28:21;9.60;91.10
13992;DHT22;7070;53.586;9.692;2023-02-11T16:30:51;9.60;91.10
13992;DHT22;7070;53.586;9.692;2023-02-11T16:33:20;9.60;91.00
13992;DHT22;7070;53.586;9.692;2023-02-11T16:35:47;9.60;91.00